Tachek — VXRQ — position and weather

sailwx.info

Track history (hours):
 
Tides and Currents Weather Stations Pressure Air Temp Water Temp Dewpoint Dewpoint Depression Visibility Wind Speed Wind Dir Waves Ship Positions

Tachek

Last reported at 2018-Jun-19 12:30 UTC. Time now 2018-Jun-19 12:34 UTC.
Position N 50°07' W 125°03'.

Length 50 m; draft 2.6 m.

Type: Ship. MMSI: 316001271.

Date/timePositionNaut miles runAvg speedWind from/ knotsBaromVisibWave heightAir tempDewpointWater temp
2018-Jun-19 12:30N 50°07' W 125°03'0 0.0
2018-Jun-19 12:00N 50°07' W 125°03'0 0.0
2018-Jun-19 11:30N 50°07' W 125°03'0 0.0
2018-Jun-19 11:00N 50°07' W 125°03'0 0.0
2018-Jun-19 10:30N 50°07' W 125°03'0 0.0
2018-Jun-19 10:00N 50°07' W 125°03'0 0.0
2018-Jun-19 09:30N 50°07' W 125°03'0 0.0
2018-Jun-19 09:00N 50°07' W 125°03'0 0.0
2018-Jun-19 08:30N 50°07' W 125°03'0 0.0
2018-Jun-19 08:00N 50°07' W 125°03'0 0.0
2018-Jun-19 07:30N 50°07' W 125°03'0 0.0
2018-Jun-19 07:00N 50°07' W 125°03'0 0.0
2018-Jun-19 06:30N 50°07' W 125°03'0 0.0
2018-Jun-19 06:00N 50°07' W 125°03'0 0.0
2018-Jun-19 05:30N 50°07' W 125°03'0 0.0
2018-Jun-19 05:00N 50°07' W 125°03'0 0.0
2018-Jun-19 04:30N 50°07' W 125°03'0 0.0
2018-Jun-19 04:00N 50°07' W 125°03'0 0.0
2018-Jun-19 03:30N 50°07' W 125°03'0 0.0
2018-Jun-19 03:00N 50°07' W 125°03'0 0.4
2018-Jun-19 02:30N 50°06' W 125°03'510.8
2018-Jun-19 02:00N 50°07' W 125°12'1 2.0
2018-Jun-19 01:31N 50°07' W 125°10'4 8.9
2018-Jun-19 01:01N 50°07' W 125°03'4 8.7
2018-Jun-19 00:30N 50°06' W 125°10'1 2.7
2018-Jun-19 00:00N 50°07' W 125°12'510.7
2018-Jun-18 23:30N 50°06' W 125°04'2 3.5
2018-Jun-18 23:00N 50°06' W 125°07'4 7.8
2018-Jun-18 22:30N 50°06' W 125°13'0 0.0
2018-Jun-18 22:01N 50°06' W 125°13'0 0.2
2018-Jun-18 21:30N 50°06' W 125°13'611.2
2018-Jun-18 21:00N 50°06' W 125°04'2 3.4
2018-Jun-18 20:30N 50°06' W 125°07'4 7.6
2018-Jun-18 20:00N 50°06' W 125°13'0 0.0
2018-Jun-18 19:30N 50°06' W 125°13'4 9.0
2018-Jun-18 19:00N 50°06' W 125°06'0 0.6
2018-Jun-18 18:30N 50°06' W 125°05'5 9.3
2018-Jun-18 18:00N 50°06' W 125°13'0 0.6
2018-Jun-18 17:31N 50°06' W 125°12'510.7
2018-Jun-18 17:00N 50°06' W 125°04'1 2.4
2018-Jun-18 16:30N 50°06' W 125°06'4 8.5
2018-Jun-18 16:00N 50°06' W 125°13'0 0.3
2018-Jun-18 15:30N 50°06' W 125°13'510.5
2018-Jun-18 15:00N 50°06' W 125°04'1 1.5
2018-Jun-18 14:30N 50°07' W 125°03'0 0.0
2018-Jun-18 14:00N 50°07' W 125°03'0 0.0
2018-Jun-18 13:30N 50°07' W 125°03'0 0.0
2018-Jun-18 13:00N 50°07' W 125°03'0 0.0
2018-Jun-18 12:30N 50°07' W 125°03'0 0.0
2018-Jun-18 12:00N 50°07' W 125°03'0 0.0
2018-Jun-18 11:24N 50°07' W 125°03'0 0.0
2018-Jun-18 11:00N 50°07' W 125°03'0 0.0
2018-Jun-18 10:30N 50°07' W 125°03'0 0.0
2018-Jun-18 10:00N 50°07' W 125°03'0 0.0
2018-Jun-18 09:30N 50°07' W 125°03'0 0.0
2018-Jun-18 09:00N 50°07' W 125°03'0 0.0
2018-Jun-18 08:30N 50°07' W 125°03'0 0.0
2018-Jun-18 08:00N 50°07' W 125°03'0 0.0
2018-Jun-18 07:30N 50°07' W 125°03'0 0.0
2018-Jun-18 07:00N 50°07' W 125°03'0 0.0
2018-Jun-18 06:30N 50°07' W 125°03'0 0.0
2018-Jun-18 06:00N 50°07' W 125°03'0 0.0
2018-Jun-18 05:30N 50°07' W 125°03'0 0.0
2018-Jun-18 05:00N 50°07' W 125°03'0 0.0
2018-Jun-18 04:30N 50°07' W 125°03'0 0.0
2018-Jun-18 04:00N 50°07' W 125°03'0 0.0
2018-Jun-18 03:30N 50°07' W 125°03'0 0.0
2018-Jun-18 02:57N 50°07' W 125°03'0 0.0
2018-Jun-18 02:30N 50°07' W 125°03'5 9.2
2018-Jun-18 02:00N 50°07' W 125°10'1 1.9
2018-Jun-18 01:30N 50°07' W 125°12'510.9
2018-Jun-18 01:00N 50°07' W 125°03'2 4.4
2018-Jun-18 00:30N 50°06' W 125°07'4 7.7
2018-Jun-18 00:00N 50°06' W 125°13'1 2.2
2018-Jun-17 23:30N 50°07' W 125°11'510.1
2018-Jun-17 23:00N 50°07' W 125°03'3 5.0
2018-Jun-17 22:30N 50°06' W 125°07'4 7.1
2018-Jun-17 22:00N 50°06' W 125°13'0 0.7
2018-Jun-17 21:30N 50°07' W 125°12'611.5
2018-Jun-17 21:00N 50°06' W 125°03'2 3.1
2018-Jun-17 20:31N 50°06' W 125°06'4 8.7
2018-Jun-17 20:00N 50°06' W 125°13'0 0.0
2018-Jun-17 19:29N 50°06' W 125°13'2 4.8
2018-Jun-17 19:00N 50°07' W 125°09'4 7.0
2018-Jun-17 18:28N 50°07' W 125°03'4 9.4
2018-Jun-17 18:00N 50°07' W 125°10'2 3.5
2018-Jun-17 17:30N 50°06' W 125°13'2 4.5
2018-Jun-17 17:00N 50°07' W 125°09'4 7.5
2018-Jun-17 16:30N 50°07' W 125°03'4 8.7
2018-Jun-17 16:00N 50°06' W 125°10'2 3.7
2018-Jun-17 15:30N 50°06' W 125°13'5 9.3
2018-Jun-17 15:00N 50°06' W 125°05'1 2.9
2018-Jun-17 14:30N 50°07' W 125°03'0 0.0
2018-Jun-17 14:00N 50°07' W 125°03'0 0.0
2018-Jun-17 13:30N 50°07' W 125°03'0 0.0
2018-Jun-17 13:00N 50°07' W 125°03'0 0.0
2018-Jun-17 12:30N 50°07' W 125°03'0 0.0
2018-Jun-17 12:00N 50°07' W 125°03'0 0.0
2018-Jun-17 11:30N 50°07' W 125°03'0 0.0
2018-Jun-17 11:00N 50°07' W 125°03'0 0.0
2018-Jun-17 10:30N 50°07' W 125°03'0 0.0
2018-Jun-17 10:00N 50°07' W 125°03'0 0.0
2018-Jun-17 09:30N 50°07' W 125°03'0 0.0
2018-Jun-17 09:00N 50°07' W 125°03'0 0.0
2018-Jun-17 08:30N 50°07' W 125°03'0 0.0
2018-Jun-17 08:00N 50°07' W 125°03'0 0.0
2018-Jun-17 07:30N 50°07' W 125°03'0 0.0
2018-Jun-17 07:00N 50°07' W 125°03'0 0.0
2018-Jun-17 06:30N 50°07' W 125°03'0 0.0
2018-Jun-17 06:00N 50°07' W 125°03'0 0.0
2018-Jun-17 05:30N 50°07' W 125°03'0 0.0
2018-Jun-17 05:00N 50°07' W 125°03'0 0.0
2018-Jun-17 04:30N 50°07' W 125°03'0 0.0
2018-Jun-17 04:00N 50°07' W 125°03'0 0.0
2018-Jun-17 03:30N 50°07' W 125°03'0 0.0
2018-Jun-17 03:00N 50°07' W 125°03'0 0.0
2018-Jun-17 02:30N 50°07' W 125°03'4 8.8
2018-Jun-17 02:00N 50°07' W 125°10'2 3.4
2018-Jun-17 01:31N 50°06' W 125°13'510.5
2018-Jun-17 01:01N 50°06' W 125°04'1 1.9
2018-Jun-17 00:30N 50°06' W 125°06'4 8.6
2018-Jun-17 00:00N 50°06' W 125°13'1 1.2
2018-Jun-16 23:31N 50°07' W 125°12'611.1
2018-Jun-16 23:01N 50°06' W 125°03'2 3.8
2018-Jun-16 22:30N 50°06' W 125°06'4 8.0
2018-Jun-16 22:00N 50°06' W 125°13'0 0.2
2018-Jun-16 21:31N 50°06' W 125°13'611.1
2018-Jun-16 21:00N 50°06' W 125°04'2 3.4
2018-Jun-16 20:30N 50°06' W 125°07'4 7.7
2018-Jun-16 20:00N 50°06' W 125°13'0 0.0
2018-Jun-16 19:30N 50°06' W 125°13'3 6.7
2018-Jun-16 19:00N 50°06' W 125°08'3 5.5
2018-Jun-16 18:30N 50°07' W 125°03'510.1
2018-Jun-16 18:00N 50°07' W 125°11'1 2.2
2018-Jun-16 17:30N 50°06' W 125°13'4 7.9
2018-Jun-16 17:00N 50°06' W 125°06'2 3.3
2018-Jun-16 16:30N 50°06' W 125°04'611.1
2018-Jun-16 16:01N 50°06' W 125°13'0 0.4
2018-Jun-16 15:30N 50°06' W 125°13'5 9.8
2018-Jun-16 15:00N 50°06' W 125°05'1 2.3
2018-Jun-16 14:30N 50°07' W 125°03'0 0.0
2018-Jun-16 13:59N 50°07' W 125°03'0 0.0
2018-Jun-16 13:30N 50°07' W 125°03'0 0.0
2018-Jun-16 13:00N 50°07' W 125°03'0 0.0
2018-Jun-16 12:30N 50°07' W 125°03'0 0.0
2018-Jun-16 12:00N 50°07' W 125°03'0 0.0
2018-Jun-16 11:30N 50°07' W 125°03'0 0.0
2018-Jun-16 11:00N 50°07' W 125°03'0 0.0
2018-Jun-16 10:30N 50°07' W 125°03'0 0.0
2018-Jun-16 09:59N 50°07' W 125°03'0 0.0
2018-Jun-16 09:30N 50°07' W 125°03'0 0.0
2018-Jun-16 09:00N 50°07' W 125°03'0 0.0
2018-Jun-16 08:30N 50°07' W 125°03'0 0.0
2018-Jun-16 08:00N 50°07' W 125°03'0 0.0
2018-Jun-16 07:30N 50°07' W 125°03'0 0.0
2018-Jun-16 07:00N 50°07' W 125°03'0 0.0
2018-Jun-16 06:30N 50°07' W 125°03'0 0.0
2018-Jun-16 06:00N 50°07' W 125°03'0 0.0
2018-Jun-16 05:30N 50°07' W 125°03'0 0.0
2018-Jun-16 05:00N 50°07' W 125°03'0 0.0
2018-Jun-16 04:29N 50°07' W 125°03'0 0.0
2018-Jun-16 04:00N 50°07' W 125°03'0 0.0
2018-Jun-16 03:30N 50°07' W 125°03'0 0.0
2018-Jun-16 03:00N 50°07' W 125°03'0 0.4
2018-Jun-16 02:30N 50°06' W 125°03'611.5
2018-Jun-16 02:00N 50°07' W 125°12'1 1.4
2018-Jun-16 01:30N 50°07' W 125°11'510.3
2018-Jun-16 01:00N 50°07' W 125°03'3 5.5
2018-Jun-16 00:30N 50°06' W 125°08'3 6.6
2018-Jun-16 00:00N 50°06' W 125°13'2 3.6
2018-Jun-15 23:30N 50°07' W 125°10'4 8.5
2018-Jun-15 23:00N 50°07' W 125°03'3 6.9
2018-Jun-15 22:31N 50°06' W 125°09'3 5.2
2018-Jun-15 22:00N 50°06' W 125°13'3 5.3
2018-Jun-15 21:30N 50°06' W 125°09'3 6.5
2018-Jun-15 20:59N 50°07' W 125°03'4 7.9
2018-Jun-15 20:30N 50°07' W 125°09'2 4.4
2018-Jun-15 19:59N 50°06' W 125°13'1 3.0
2018-Jun-15 19:31N 50°07' W 125°10'5 9.3
2018-Jun-15 19:00N 50°07' W 125°03'2 4.9
2018-Jun-15 18:31N 50°06' W 125°07'4 7.3
2018-Jun-15 18:00N 50°06' W 125°13'3 5.0
2018-Jun-15 17:30N 50°07' W 125°09'4 7.1
2018-Jun-15 17:00N 50°07' W 125°03'4 7.7
2018-Jun-15 16:30N 50°06' W 125°09'2 4.4
2018-Jun-15 16:00N 50°06' W 125°13'0 0.1
2018-Jun-15 15:31N 50°06' W 125°13'5 9.4
2018-Jun-15 15:00N 50°06' W 125°05'1 2.5
2018-Jun-15 14:28N 50°07' W 125°03'0 0.0
2018-Jun-15 13:58N 50°07' W 125°03'0 0.0
2018-Jun-15 13:28N 50°07' W 125°03'0 0.0
2018-Jun-15 12:58N 50°07' W 125°03'0 0.0
2018-Jun-15 12:28N 50°07' W 125°03'0 0.0
2018-Jun-15 11:58N 50°07' W 125°03'0 0.0
2018-Jun-15 11:28N 50°07' W 125°03'0 0.0
2018-Jun-15 10:58N 50°07' W 125°03'0 0.0
2018-Jun-15 10:25N 50°07' W 125°03'0 0.0
2018-Jun-15 09:55N 50°07' W 125°03'0 0.0
2018-Jun-15 09:28N 50°07' W 125°03'0 0.0
2018-Jun-15 08:58N 50°07' W 125°03'0 0.0
2018-Jun-15 08:25N 50°07' W 125°03'0 0.0
2018-Jun-15 07:58N 50°07' W 125°03'0 0.0
2018-Jun-15 07:28N 50°07' W 125°03'0 0.0
2018-Jun-15 06:58N 50°07' W 125°03'0 0.0
2018-Jun-15 06:25N 50°07' W 125°03'0 0.0
2018-Jun-15 05:58N 50°07' W 125°03'0 0.0
2018-Jun-15 05:28N 50°07' W 125°03'0 0.0
2018-Jun-15 04:58N 50°07' W 125°03'0 0.0
2018-Jun-15 04:28N 50°07' W 125°03'0 0.0
2018-Jun-15 03:58N 50°07' W 125°03'0 0.0
2018-Jun-15 03:28N 50°07' W 125°03'0 0.0
2018-Jun-15 02:58N 50°07' W 125°03'0 0.0
2018-Jun-15 02:31N 50°07' W 125°03'510.9
2018-Jun-15 02:01N 50°07' W 125°12'0 0.6
2018-Jun-15 01:30N 50°07' W 125°11'510.5
2018-Jun-15 01:01N 50°07' W 125°03'3 5.8
2018-Jun-15 00:31N 50°07' W 125°08'3 6.2
2018-Jun-15 00:00N 50°06' W 125°13'1 1.2
2018-Jun-14 23:31N 50°07' W 125°12'611.1
2018-Jun-14 23:00N 50°06' W 125°03'2 3.8
2018-Jun-14 22:30N 50°06' W 125°06'4 8.2
2018-Jun-14 22:01N 50°06' W 125°13'1 1.1
2018-Jun-14 21:30N 50°07' W 125°12'611.0
2018-Jun-14 21:00N 50°06' W 125°04'2 4.1
2018-Jun-14 20:31N 50°06' W 125°07'4 7.1
2018-Jun-14 19:58N 50°06' W 125°13'3 7.2
2018-Jun-14 19:31N 50°07' W 125°08'3 5.4
2018-Jun-14 19:00N 50°07' W 125°03'510.3
2018-Jun-14 18:30N 50°07' W 125°11'1 2.2
2018-Jun-14 18:01N 50°06' W 125°13'0 0.6
2018-Jun-14 17:30N 50°07' W 125°12'611.2
2018-Jun-14 17:01N 50°06' W 125°04'1 2.5
2018-Jun-14 16:30N 50°06' W 125°06'4 8.9
2018-Jun-14 16:00N 50°06' W 125°13'1 1.6
2018-Jun-14 15:30N 50°07' W 125°12'510.7
2018-Jun-14 15:00N 50°07' W 125°03'0 0.1
2018-Jun-14 14:31N 50°07' W 125°03'0 0.0
2018-Jun-14 14:00N 50°07' W 125°03'0 0.0
2018-Jun-14 13:31N 50°07' W 125°03'0 0.0
2018-Jun-14 13:00N 50°07' W 125°03'0 0.0
2018-Jun-14 12:31N 50°07' W 125°03'0 0.0
2018-Jun-14 12:01N 50°07' W 125°03'0 0.0
2018-Jun-14 11:31N 50°07' W 125°03'0 0.0
2018-Jun-14 11:01N 50°07' W 125°03'0 0.0
2018-Jun-14 10:30N 50°07' W 125°03'0 0.0
2018-Jun-14 10:01N 50°07' W 125°03'0 0.0
2018-Jun-14 09:30N 50°07' W 125°03'0 0.0
2018-Jun-14 09:01N 50°07' W 125°03'0 0.0
2018-Jun-14 08:31N 50°07' W 125°03'0 0.0
2018-Jun-14 08:00N 50°07' W 125°03'0 0.0
2018-Jun-14 07:31N 50°07' W 125°03'0 0.0
2018-Jun-14 06:59N 50°07' W 125°03'0 0.0
2018-Jun-14 06:30N 50°07' W 125°03'0 0.0
2018-Jun-14 06:01N 50°07' W 125°03'0 0.0
2018-Jun-14 05:30N 50°07' W 125°03'0 0.0
2018-Jun-14 05:01N 50°07' W 125°03'0 0.0
2018-Jun-14 04:30N 50°07' W 125°03'0 0.0
2018-Jun-14 04:00N 50°07' W 125°03'0 0.0
2018-Jun-14 03:30N 50°07' W 125°03'0 0.0
2018-Jun-14 03:00N 50°07' W 125°03'0 0.0
2018-Jun-14 02:30N 50°07' W 125°03'510.4
2018-Jun-14 02:00N 50°07' W 125°11'0 0.7
2018-Jun-14 01:31N 50°07' W 125°12'510.9
2018-Jun-14 01:01N 50°06' W 125°03'2 4.4
2018-Jun-14 00:30N 50°07' W 125°07'4 7.6
2018-Jun-14 00:01N 50°06' W 125°13'1 1.5
2018-Jun-13 23:31N 50°07' W 125°12'510.9
2018-Jun-13 23:01N 50°07' W 125°03'3 5.9
2018-Jun-13 22:31N 50°06' W 125°08'3 6.1
2018-Jun-13 22:01N 50°06' W 125°13'1 2.2
2018-Jun-13 21:31N 50°07' W 125°11'5 9.8
2018-Jun-13 21:00N 50°07' W 125°03'2 3.8
2018-Jun-13 20:30N 50°06' W 125°06'4 8.4
2018-Jun-13 20:00N 50°06' W 125°13'1 2.5
2018-Jun-13 19:31N 50°07' W 125°11'5 9.7
2018-Jun-13 19:01N 50°07' W 125°03'2 4.7
2018-Jun-13 18:30N 50°06' W 125°07'4 7.4
2018-Jun-13 18:01N 50°06' W 125°13'2 3.0
2018-Jun-13 17:30N 50°06' W 125°10'5 9.0
2018-Jun-13 17:00N 50°07' W 125°03'3 6.0
2018-Jun-13 16:30N 50°06' W 125°08'3 6.2
2018-Jun-13 16:01N 50°06' W 125°13'0 0.1
2018-Jun-13 15:30N 50°06' W 125°13'5 9.8
2018-Jun-13 15:00N 50°06' W 125°05'1 2.4
2018-Jun-13 14:30N 50°07' W 125°03'0 0.0
2018-Jun-13 14:00N 50°07' W 125°03'0 0.0
2018-Jun-13 13:30N 50°07' W 125°03'0 0.0
2018-Jun-13 13:01N 50°07' W 125°03'0 0.0
2018-Jun-13 12:30N 50°07' W 125°03'0 0.0
2018-Jun-13 12:00N 50°07' W 125°03'0 0.0
2018-Jun-13 11:31N 50°07' W 125°03'0 0.0
2018-Jun-13 11:00N 50°07' W 125°03'0 0.0
2018-Jun-13 10:31N 50°07' W 125°03'0 0.0
2018-Jun-13 10:01N 50°07' W 125°03'0 0.0
2018-Jun-13 09:31N 50°07' W 125°03'0 0.0
2018-Jun-13 09:00N 50°07' W 125°03'0 0.0
2018-Jun-13 08:31N 50°07' W 125°03'0 0.0
2018-Jun-13 07:59N 50°07' W 125°03'0 0.0
2018-Jun-13 07:30N 50°07' W 125°03'0 0.0
2018-Jun-13 07:00N 50°07' W 125°03'0 0.0
2018-Jun-13 06:31N 50°07' W 125°03'0 0.0
2018-Jun-13 06:00N 50°07' W 125°03'0 0.0
2018-Jun-13 05:30N 50°07' W 125°03'0 0.0
2018-Jun-13 05:01N 50°07' W 125°03'0 0.0
2018-Jun-13 04:31N 50°07' W 125°03'0 0.0
2018-Jun-13 04:01N 50°07' W 125°03'0 0.0
2018-Jun-13 03:29N 50°07' W 125°03'0 0.0
2018-Jun-13 03:01N 50°07' W 125°03'0 0.0
2018-Jun-13 02:31N 50°07' W 125°03'5 9.5
2018-Jun-13 02:01N 50°07' W 125°11'1 1.7
2018-Jun-13 01:31N 50°07' W 125°12'611.0
2018-Jun-13 01:01N 50°06' W 125°03'2 4.7
2018-Jun-13 00:31N 50°06' W 125°07'4 7.2
2018-Jun-13 00:00N 50°06' W 125°13'1 1.2
2018-Jun-12 23:31N 50°07' W 125°12'611.2
2018-Jun-12 23:01N 50°06' W 125°03'2 4.5
2018-Jun-12 22:31N 50°06' W 125°07'4 7.6
2018-Jun-12 22:01N 50°06' W 125°13'0 0.3
2018-Jun-12 21:30N 50°06' W 125°13'510.5
2018-Jun-12 21:01N 50°06' W 125°04'1 2.0
2018-Jun-12 20:31N 50°06' W 125°06'4 8.5
2018-Jun-12 20:01N 50°06' W 125°13'0 0.0
2018-Jun-12 19:30N 50°06' W 125°13'5 9.6
2018-Jun-12 19:00N 50°06' W 125°05'1 1.7
2018-Jun-12 18:30N 50°06' W 125°04'510.6
2018-Jun-12 18:01N 50°07' W 125°12'0 0.5
2018-Jun-12 17:31N 50°07' W 125°12'611.2
2018-Jun-12 17:01N 50°06' W 125°04'2 3.9
2018-Jun-12 16:31N 50°06' W 125°07'4 7.5
2018-Jun-12 16:01N 50°06' W 125°13'0 0.0
2018-Jun-12 15:30N 50°06' W 125°13'5 9.8
2018-Jun-12 15:00N 50°06' W 125°05'1 2.3
2018-Jun-12 14:31N 50°07' W 125°03'0 0.0
2018-Jun-12 14:01N 50°07' W 125°03'0 0.0
2018-Jun-12 13:31N 50°07' W 125°03'0 0.0
2018-Jun-12 13:01N 50°07' W 125°03'0 0.0
2018-Jun-12 12:31N 50°07' W 125°03'0 0.0
2018-Jun-12 12:01N 50°07' W 125°03'0 0.0
2018-Jun-12 11:31N 50°07' W 125°03'0 0.0
2018-Jun-12 11:00N 50°07' W 125°03'0 0.0
2018-Jun-12 10:30N 50°07' W 125°03'0 0.0
2018-Jun-12 09:59N 50°07' W 125°03'0 0.0
2018-Jun-12 09:31N 50°07' W 125°03'0 0.0
2018-Jun-12 09:01N 50°07' W 125°03'0 0.0
2018-Jun-12 08:29N 50°07' W 125°03'0 0.0
2018-Jun-12 08:01N 50°07' W 125°03'0 0.0
2018-Jun-12 07:31N 50°07' W 125°03'0 0.0
2018-Jun-12 07:01N 50°07' W 125°03'0 0.0
2018-Jun-12 06:29N 50°07' W 125°03'0 0.0
2018-Jun-12 06:01N 50°07' W 125°03'0 0.0
2018-Jun-12 05:30N 50°07' W 125°03'0 0.0
2018-Jun-12 05:01N 50°07' W 125°03'0 0.0
2018-Jun-12 04:31N 50°07' W 125°03'0 0.0
2018-Jun-12 04:01N 50°07' W 125°03'0 0.0
2018-Jun-12 03:30N 50°07' W 125°03'0 0.0
2018-Jun-12 03:00N 50°07' W 125°03'0 0.0
2018-Jun-12 02:31N 50°07' W 125°03'5 9.5
2018-Jun-12 02:01N 50°07' W 125°11'1 2.1
2018-Jun-12 01:30N 50°07' W 125°12'611.0
2018-Jun-12 01:01N 50°06' W 125°04'2 4.8
2018-Jun-12 00:31N 50°06' W 125°07'3 6.7
2018-Jun-12 00:00N 50°06' W 125°13'2 3.1
2018-Jun-11 23:31N 50°07' W 125°10'5 9.2
2018-Jun-11 23:01N 50°07' W 125°03'3 5.3
2018-Jun-11 22:31N 50°07' W 125°07'3 6.8
2018-Jun-11 22:01N 50°06' W 125°13'0 0.4
2018-Jun-11 21:31N 50°06' W 125°13'611.0
2018-Jun-11 21:01N 50°06' W 125°04'2 3.6
2018-Jun-11 20:31N 50°06' W 125°07'4 7.5
2018-Jun-11 20:00N 50°06' W 125°13'0 0.2
2018-Jun-11 19:30N 50°06' W 125°13'510.7
2018-Jun-11 19:01N 50°06' W 125°04'2 3.2
2018-Jun-11 18:31N 50°06' W 125°07'4 7.4
2018-Jun-11 18:00N 50°06' W 125°13'0 0.5
2018-Jun-11 17:31N 50°06' W 125°13'611.0
2018-Jun-11 17:01N 50°06' W 125°04'1 2.9
2018-Jun-11 16:31N 50°06' W 125°06'4 8.1
2018-Jun-11 16:00N 50°06' W 125°13'0 0.2
2018-Jun-11 15:31N 50°06' W 125°13'510.8
2018-Jun-11 15:01N 50°06' W 125°04'1 1.3
2018-Jun-11 14:31N 50°07' W 125°03'0 0.0
2018-Jun-11 14:00N 50°07' W 125°03'0 0.0
2018-Jun-11 13:31N 50°07' W 125°03'0 0.0
2018-Jun-11 13:01N 50°07' W 125°03'0 0.0
2018-Jun-11 12:31N 50°07' W 125°03'0 0.0
2018-Jun-11 12:01N 50°07' W 125°03'0 0.0
2018-Jun-11 11:31N 50°07' W 125°03'0 0.0
2018-Jun-11 11:01N 50°07' W 125°03'0 0.0
2018-Jun-11 10:29N 50°07' W 125°03'0 0.0
2018-Jun-11 10:00N 50°07' W 125°03'0 0.0
2018-Jun-11 09:30N 50°07' W 125°03'0 0.0
2018-Jun-11 09:01N 50°07' W 125°03'0 0.0
2018-Jun-11 08:31N 50°07' W 125°03'0 0.0
2018-Jun-11 08:01N 50°07' W 125°03'0 0.0
2018-Jun-11 07:30N 50°07' W 125°03'0 0.0
2018-Jun-11 07:01N 50°07' W 125°03'0 0.0
2018-Jun-11 06:31N 50°07' W 125°03'0 0.0
2018-Jun-11 05:59N 50°07' W 125°03'0 0.0
2018-Jun-11 05:30N 50°07' W 125°03'0 0.0
2018-Jun-11 05:01N 50°07' W 125°03'0 0.0
2018-Jun-11 04:31N 50°07' W 125°03'0 0.0
2018-Jun-11 04:01N 50°07' W 125°03'0 0.0
2018-Jun-11 03:31N 50°07' W 125°03'0 0.0
2018-Jun-11 03:00N 50°07' W 125°03'0 0.0
2018-Jun-11 02:31N 50°07' W 125°03'4 8.1
2018-Jun-11 02:01N 50°07' W 125°10'2 3.5
2018-Jun-11 01:31N 50°07' W 125°12'510.8
2018-Jun-11 01:00N 50°06' W 125°04'2 3.0
2018-Jun-11 00:31N 50°06' W 125°06'4 8.3
2018-Jun-11 00:01N 50°06' W 125°13'0 0.1
2018-Jun-10 23:31N 50°06' W 125°13'510.1
2018-Jun-10 23:00N 50°06' W 125°05'1 2.3
2018-Jun-10 22:30N 50°06' W 125°06'4 7.8
2018-Jun-10 22:00N 50°06' W 125°13'1 1.6
2018-Jun-10 21:30N 50°07' W 125°12'510.7
2018-Jun-10 21:00N 50°06' W 125°03'3 5.1
2018-Jun-10 20:30N 50°06' W 125°07'3 6.6
2018-Jun-10 19:59N 50°06' W 125°13'0 0.0
2018-Jun-10 19:31N 50°06' W 125°13'3 5.6
2018-Jun-10 19:00N 50°07' W 125°08'3 6.5
2018-Jun-10 18:30N 50°07' W 125°03'510.2
2018-Jun-10 18:01N 50°07' W 125°11'1 2.1
2018-Jun-10 17:31N 50°06' W 125°13'3 5.0
2018-Jun-10 17:00N 50°07' W 125°09'4 7.1
2018-Jun-10 16:31N 50°07' W 125°03'510.3
2018-Jun-10 16:00N 50°07' W 125°11'1 2.0
2018-Jun-10 15:30N 50°06' W 125°13'510.0
2018-Jun-10 15:01N 50°06' W 125°05'1 1.1
2018-Jun-10 14:00N 50°07' W 125°03'0 0.0
2018-Jun-10 13:31N 50°07' W 125°03'0 0.0
2018-Jun-10 13:00N 50°07' W 125°03'0 0.0
2018-Jun-10 12:31N 50°07' W 125°03'0 0.0
2018-Jun-10 12:01N 50°07' W 125°03'0 0.0
2018-Jun-10 11:30N 50°07' W 125°03'0 0.0
2018-Jun-10 11:00N 50°07' W 125°03'0 0.0
2018-Jun-10 10:31N 50°07' W 125°03'0 0.0
2018-Jun-10 09:59N 50°07' W 125°03'0 0.0
2018-Jun-10 09:30N 50°07' W 125°03'0 0.0
2018-Jun-10 09:00N 50°07' W 125°03'0 0.0
2018-Jun-10 08:30N 50°07' W 125°03'0 0.0
2018-Jun-10 08:00N 50°07' W 125°03'0 0.0
2018-Jun-10 07:31N 50°07' W 125°03'0 0.0
2018-Jun-10 07:01N 50°07' W 125°03'0 0.0
2018-Jun-10 06:31N 50°07' W 125°03'0 0.0
2018-Jun-10 06:01N 50°07' W 125°03'0 0.0
2018-Jun-10 05:29N 50°07' W 125°03'0 0.0
2018-Jun-10 05:01N 50°07' W 125°03'0 0.0
2018-Jun-10 04:30N 50°07' W 125°03'0 0.0
2018-Jun-10 04:00N 50°07' W 125°03'0 0.0
2018-Jun-10 03:31N 50°07' W 125°03'0 0.0
2018-Jun-10 03:00N 50°07' W 125°03'0 0.0
2018-Jun-10 02:31N 50°07' W 125°03'4 8.0
2018-Jun-10 02:00N 50°07' W 125°09'2 4.1
2018-Jun-10 01:31N 50°06' W 125°13'5 9.5
2018-Jun-10 01:00N 50°06' W 125°05'0 0.7
2018-Jun-10 00:30N 50°06' W 125°06'4 9.0
2018-Jun-10 00:01N 50°06' W 125°13'0 0.1
2018-Jun-09 23:31N 50°06' W 125°13'5 9.6
2018-Jun-09 23:00N 50°06' W 125°05'1 1.2
2018-Jun-09 22:30N 50°06' W 125°06'4 8.7
2018-Jun-09 22:01N 50°06' W 125°13'0 0.1
2018-Jun-09 21:31N 50°06' W 125°13'5 9.5
2018-Jun-09 21:00N 50°06' W 125°05'0 0.8
2018-Jun-09 20:30N 50°06' W 125°06'4 8.7
2018-Jun-09 20:00N 50°06' W 125°13'0 0.0
2018-Jun-09 19:31N 50°06' W 125°13'3 5.4
2018-Jun-09 19:00N 50°07' W 125°08'3 6.7
2018-Jun-09 18:31N 50°07' W 125°03'510.4
2018-Jun-09 18:01N 50°07' W 125°11'1 1.9
2018-Jun-09 17:31N 50°06' W 125°13'2 4.9
2018-Jun-09 17:00N 50°07' W 125°09'4 7.2
2018-Jun-09 16:30N 50°07' W 125°03'5 9.6
2018-Jun-09 16:01N 50°07' W 125°11'3 3.4
2018-Jun-09 15:01N 50°06' W 125°05'1 2.6
2018-Jun-09 14:27N 50°07' W 125°03'0 0.0
2018-Jun-09 14:00N 50°07' W 125°03'0 0.0
2018-Jun-09 13:29N 50°07' W 125°03'0 0.0
2018-Jun-09 13:01N 50°07' W 125°03'  
Track history (hours):
 
Tides and Currents Weather Stations Pressure Air Temp Water Temp Dewpoint Dewpoint Depression Visibility Wind Speed Wind Dir Waves Ship Positions

Tachek

Last reported at 2018-Jun-19 12:30 UTC. Time now 2018-Jun-19 12:34 UTC.
Position N 50°07' W 125°03'.

Length 50 m; draft 2.6 m.

Type: Ship. MMSI: 316001271.

Date/timePositionNaut miles runAvg speedWind from/ knotsBaromVisibWave heightAir tempDewpointWater temp
2018-Jun-19 12:30N 50°07' W 125°03'0 0.0
2018-Jun-19 12:00N 50°07' W 125°03'0 0.0
2018-Jun-19 11:30N 50°07' W 125°03'0 0.0
2018-Jun-19 11:00N 50°07' W 125°03'0 0.0
2018-Jun-19 10:30N 50°07' W 125°03'0 0.0
2018-Jun-19 10:00N 50°07' W 125°03'0 0.0
2018-Jun-19 09:30N 50°07' W 125°03'0 0.0
2018-Jun-19 09:00N 50°07' W 125°03'0 0.0
2018-Jun-19 08:30N 50°07' W 125°03'0 0.0
2018-Jun-19 08:00N 50°07' W 125°03'0 0.0
2018-Jun-19 07:30N 50°07' W 125°03'0 0.0
2018-Jun-19 07:00N 50°07' W 125°03'0 0.0
2018-Jun-19 06:30N 50°07' W 125°03'0 0.0
2018-Jun-19 06:00N 50°07' W 125°03'0 0.0
2018-Jun-19 05:30N 50°07' W 125°03'0 0.0
2018-Jun-19 05:00N 50°07' W 125°03'0 0.0
2018-Jun-19 04:30N 50°07' W 125°03'0 0.0
2018-Jun-19 04:00N 50°07' W 125°03'0 0.0
2018-Jun-19 03:30N 50°07' W 125°03'0 0.0
2018-Jun-19 03:00N 50°07' W 125°03'0 0.4
2018-Jun-19 02:30N 50°06' W 125°03'510.8
2018-Jun-19 02:00N 50°07' W 125°12'1 2.0
2018-Jun-19 01:31N 50°07' W 125°10'4 8.9
2018-Jun-19 01:01N 50°07' W 125°03'4 8.7
2018-Jun-19 00:30N 50°06' W 125°10'1 2.7
2018-Jun-19 00:00N 50°07' W 125°12'510.7
2018-Jun-18 23:30N 50°06' W 125°04'2 3.5
2018-Jun-18 23:00N 50°06' W 125°07'4 7.8
2018-Jun-18 22:30N 50°06' W 125°13'0 0.0
2018-Jun-18 22:01N 50°06' W 125°13'0 0.2
2018-Jun-18 21:30N 50°06' W 125°13'611.2
2018-Jun-18 21:00N 50°06' W 125°04'2 3.4
2018-Jun-18 20:30N 50°06' W 125°07'4 7.6
2018-Jun-18 20:00N 50°06' W 125°13'0 0.0
2018-Jun-18 19:30N 50°06' W 125°13'4 9.0
2018-Jun-18 19:00N 50°06' W 125°06'0 0.6
2018-Jun-18 18:30N 50°06' W 125°05'5 9.3
2018-Jun-18 18:00N 50°06' W 125°13'0 0.6
2018-Jun-18 17:31N 50°06' W 125°12'510.7
2018-Jun-18 17:00N 50°06' W 125°04'1 2.4
2018-Jun-18 16:30N 50°06' W 125°06'4 8.5
2018-Jun-18 16:00N 50°06' W 125°13'0 0.3
2018-Jun-18 15:30N 50°06' W 125°13'510.5
2018-Jun-18 15:00N 50°06' W 125°04'1 1.5
2018-Jun-18 14:30N 50°07' W 125°03'0 0.0
2018-Jun-18 14:00N 50°07' W 125°03'0 0.0
2018-Jun-18 13:30N 50°07' W 125°03'0 0.0
2018-Jun-18 13:00N 50°07' W 125°03'0 0.0
2018-Jun-18 12:30N 50°07' W 125°03'0 0.0
2018-Jun-18 12:00N 50°07' W 125°03'0 0.0
2018-Jun-18 11:24N 50°07' W 125°03'0 0.0
2018-Jun-18 11:00N 50°07' W 125°03'0 0.0
2018-Jun-18 10:30N 50°07' W 125°03'0 0.0
2018-Jun-18 10:00N 50°07' W 125°03'0 0.0
2018-Jun-18 09:30N 50°07' W 125°03'0 0.0
2018-Jun-18 09:00N 50°07' W 125°03'0 0.0
2018-Jun-18 08:30N 50°07' W 125°03'0 0.0
2018-Jun-18 08:00N 50°07' W 125°03'0 0.0
2018-Jun-18 07:30N 50°07' W 125°03'0 0.0
2018-Jun-18 07:00N 50°07' W 125°03'0 0.0
2018-Jun-18 06:30N 50°07' W 125°03'0 0.0
2018-Jun-18 06:00N 50°07' W 125°03'0 0.0
2018-Jun-18 05:30N 50°07' W 125°03'0 0.0
2018-Jun-18 05:00N 50°07' W 125°03'0 0.0
2018-Jun-18 04:30N 50°07' W 125°03'0 0.0
2018-Jun-18 04:00N 50°07' W 125°03'0 0.0
2018-Jun-18 03:30N 50°07' W 125°03'0 0.0
2018-Jun-18 02:57N 50°07' W 125°03'0 0.0
2018-Jun-18 02:30N 50°07' W 125°03'5 9.2
2018-Jun-18 02:00N 50°07' W 125°10'1 1.9
2018-Jun-18 01:30N 50°07' W 125°12'510.9
2018-Jun-18 01:00N 50°07' W 125°03'2 4.4
2018-Jun-18 00:30N 50°06' W 125°07'4 7.7
2018-Jun-18 00:00N 50°06' W 125°13'1 2.2
2018-Jun-17 23:30N 50°07' W 125°11'510.1
2018-Jun-17 23:00N 50°07' W 125°03'3 5.0
2018-Jun-17 22:30N 50°06' W 125°07'4 7.1
2018-Jun-17 22:00N 50°06' W 125°13'0 0.7
2018-Jun-17 21:30N 50°07' W 125°12'611.5
2018-Jun-17 21:00N 50°06' W 125°03'2 3.1
2018-Jun-17 20:31N 50°06' W 125°06'4 8.7
2018-Jun-17 20:00N 50°06' W 125°13'0 0.0
2018-Jun-17 19:29N 50°06' W 125°13'2 4.8
2018-Jun-17 19:00N 50°07' W 125°09'4 7.0
2018-Jun-17 18:28N 50°07' W 125°03'4 9.4
2018-Jun-17 18:00N 50°07' W 125°10'2 3.5
2018-Jun-17 17:30N 50°06' W 125°13'2 4.5
2018-Jun-17 17:00N 50°07' W 125°09'4 7.5
2018-Jun-17 16:30N 50°07' W 125°03'4 8.7
2018-Jun-17 16:00N 50°06' W 125°10'2 3.7
2018-Jun-17 15:30N 50°06' W 125°13'5 9.3
2018-Jun-17 15:00N 50°06' W 125°05'1 2.9
2018-Jun-17 14:30N 50°07' W 125°03'0 0.0
2018-Jun-17 14:00N 50°07' W 125°03'0 0.0
2018-Jun-17 13:30N 50°07' W 125°03'0 0.0
2018-Jun-17 13:00N 50°07' W 125°03'0 0.0
2018-Jun-17 12:30N 50°07' W 125°03'0 0.0
2018-Jun-17 12:00N 50°07' W 125°03'0 0.0
2018-Jun-17 11:30N 50°07' W 125°03'0 0.0
2018-Jun-17 11:00N 50°07' W 125°03'0 0.0
2018-Jun-17 10:30N 50°07' W 125°03'0 0.0
2018-Jun-17 10:00N 50°07' W 125°03'0 0.0
2018-Jun-17 09:30N 50°07' W 125°03'0 0.0
2018-Jun-17 09:00N 50°07' W 125°03'0 0.0
2018-Jun-17 08:30N 50°07' W 125°03'0 0.0
2018-Jun-17 08:00N 50°07' W 125°03'0 0.0
2018-Jun-17 07:30N 50°07' W 125°03'0 0.0
2018-Jun-17 07:00N 50°07' W 125°03'0 0.0
2018-Jun-17 06:30N 50°07' W 125°03'0 0.0
2018-Jun-17 06:00N 50°07' W 125°03'0 0.0
2018-Jun-17 05:30N 50°07' W 125°03'0 0.0
2018-Jun-17 05:00N 50°07' W 125°03'0 0.0
2018-Jun-17 04:30N 50°07' W 125°03'0 0.0
2018-Jun-17 04:00N 50°07' W 125°03'0 0.0
2018-Jun-17 03:30N 50°07' W 125°03'0 0.0
2018-Jun-17 03:00N 50°07' W 125°03'0 0.0
2018-Jun-17 02:30N 50°07' W 125°03'4 8.8
2018-Jun-17 02:00N 50°07' W 125°10'2 3.4
2018-Jun-17 01:31N 50°06' W 125°13'510.5
2018-Jun-17 01:01N 50°06' W 125°04'1 1.9
2018-Jun-17 00:30N 50°06' W 125°06'4 8.6
2018-Jun-17 00:00N 50°06' W 125°13'1 1.2
2018-Jun-16 23:31N 50°07' W 125°12'611.1
2018-Jun-16 23:01N 50°06' W 125°03'2 3.8
2018-Jun-16 22:30N 50°06' W 125°06'4 8.0
2018-Jun-16 22:00N 50°06' W 125°13'0 0.2
2018-Jun-16 21:31N 50°06' W 125°13'611.1
2018-Jun-16 21:00N 50°06' W 125°04'2 3.4
2018-Jun-16 20:30N 50°06' W 125°07'4 7.7
2018-Jun-16 20:00N 50°06' W 125°13'0 0.0
2018-Jun-16 19:30N 50°06' W 125°13'3 6.7
2018-Jun-16 19:00N 50°06' W 125°08'3 5.5
2018-Jun-16 18:30N 50°07' W 125°03'510.1
2018-Jun-16 18:00N 50°07' W 125°11'1 2.2
2018-Jun-16 17:30N 50°06' W 125°13'4 7.9
2018-Jun-16 17:00N 50°06' W 125°06'2 3.3
2018-Jun-16 16:30N 50°06' W 125°04'611.1
2018-Jun-16 16:01N 50°06' W 125°13'0 0.4
2018-Jun-16 15:30N 50°06' W 125°13'5 9.8
2018-Jun-16 15:00N 50°06' W 125°05'1 2.3
2018-Jun-16 14:30N 50°07' W 125°03'0 0.0
2018-Jun-16 13:59N 50°07' W 125°03'0 0.0
2018-Jun-16 13:30N 50°07' W 125°03'0 0.0
2018-Jun-16 13:00N 50°07' W 125°03'0 0.0
2018-Jun-16 12:30N 50°07' W 125°03'0 0.0
2018-Jun-16 12:00N 50°07' W 125°03'0 0.0
2018-Jun-16 11:30N 50°07' W 125°03'0 0.0
2018-Jun-16 11:00N 50°07' W 125°03'0 0.0
2018-Jun-16 10:30N 50°07' W 125°03'0 0.0
2018-Jun-16 09:59N 50°07' W 125°03'0 0.0
2018-Jun-16 09:30N 50°07' W 125°03'0 0.0
2018-Jun-16 09:00N 50°07' W 125°03'0 0.0
2018-Jun-16 08:30N 50°07' W 125°03'0 0.0
2018-Jun-16 08:00N 50°07' W 125°03'0 0.0
2018-Jun-16 07:30N 50°07' W 125°03'0 0.0
2018-Jun-16 07:00N 50°07' W 125°03'0 0.0
2018-Jun-16 06:30N 50°07' W 125°03'0 0.0
2018-Jun-16 06:00N 50°07' W 125°03'0 0.0
2018-Jun-16 05:30N 50°07' W 125°03'0 0.0
2018-Jun-16 05:00N 50°07' W 125°03'0 0.0
2018-Jun-16 04:29N 50°07' W 125°03'0 0.0
2018-Jun-16 04:00N 50°07' W 125°03'0 0.0
2018-Jun-16 03:30N 50°07' W 125°03'0 0.0
2018-Jun-16 03:00N 50°07' W 125°03'0 0.4
2018-Jun-16 02:30N 50°06' W 125°03'611.5
2018-Jun-16 02:00N 50°07' W 125°12'1 1.4
2018-Jun-16 01:30N 50°07' W 125°11'510.3
2018-Jun-16 01:00N 50°07' W 125°03'3 5.5
2018-Jun-16 00:30N 50°06' W 125°08'3 6.6
2018-Jun-16 00:00N 50°06' W 125°13'2 3.6
2018-Jun-15 23:30N 50°07' W 125°10'4 8.5
2018-Jun-15 23:00N 50°07' W 125°03'3 6.9
2018-Jun-15 22:31N 50°06' W 125°09'3 5.2
2018-Jun-15 22:00N 50°06' W 125°13'3 5.3
2018-Jun-15 21:30N 50°06' W 125°09'3 6.5
2018-Jun-15 20:59N 50°07' W 125°03'4 7.9
2018-Jun-15 20:30N 50°07' W 125°09'2 4.4
2018-Jun-15 19:59N 50°06' W 125°13'1 3.0
2018-Jun-15 19:31N 50°07' W 125°10'5 9.3
2018-Jun-15 19:00N 50°07' W 125°03'2 4.9
2018-Jun-15 18:31N 50°06' W 125°07'4 7.3
2018-Jun-15 18:00N 50°06' W 125°13'3 5.0
2018-Jun-15 17:30N 50°07' W 125°09'4 7.1
2018-Jun-15 17:00N 50°07' W 125°03'4 7.7
2018-Jun-15 16:30N 50°06' W 125°09'2 4.4
2018-Jun-15 16:00N 50°06' W 125°13'0 0.1
2018-Jun-15 15:31N 50°06' W 125°13'5 9.4
2018-Jun-15 15:00N 50°06' W 125°05'1 2.5
2018-Jun-15 14:28N 50°07' W 125°03'0 0.0
2018-Jun-15 13:58N 50°07' W 125°03'0 0.0
2018-Jun-15 13:28N 50°07' W 125°03'0 0.0
2018-Jun-15 12:58N 50°07' W 125°03'0 0.0
2018-Jun-15 12:28N 50°07' W 125°03'0 0.0
2018-Jun-15 11:58N 50°07' W 125°03'0 0.0
2018-Jun-15 11:28N 50°07' W 125°03'0 0.0
2018-Jun-15 10:58N 50°07' W 125°03'0 0.0
2018-Jun-15 10:25N 50°07' W 125°03'0 0.0
2018-Jun-15 09:55N 50°07' W 125°03'0 0.0
2018-Jun-15 09:28N 50°07' W 125°03'0 0.0
2018-Jun-15 08:58N 50°07' W 125°03'0 0.0
2018-Jun-15 08:25N 50°07' W 125°03'0 0.0
2018-Jun-15 07:58N 50°07' W 125°03'0 0.0
2018-Jun-15 07:28N 50°07' W 125°03'0 0.0
2018-Jun-15 06:58N 50°07' W 125°03'0 0.0
2018-Jun-15 06:25N 50°07' W 125°03'0 0.0
2018-Jun-15 05:58N 50°07' W 125°03'0 0.0
2018-Jun-15 05:28N 50°07' W 125°03'0 0.0
2018-Jun-15 04:58N 50°07' W 125°03'0 0.0
2018-Jun-15 04:28N 50°07' W 125°03'0 0.0
2018-Jun-15 03:58N 50°07' W 125°03'0 0.0
2018-Jun-15 03:28N 50°07' W 125°03'0 0.0
2018-Jun-15 02:58N 50°07' W 125°03'0 0.0
2018-Jun-15 02:31N 50°07' W 125°03'510.9
2018-Jun-15 02:01N 50°07' W 125°12'0 0.6
2018-Jun-15 01:30N 50°07' W 125°11'510.5
2018-Jun-15 01:01N 50°07' W 125°03'3 5.8
2018-Jun-15 00:31N 50°07' W 125°08'3 6.2
2018-Jun-15 00:00N 50°06' W 125°13'1 1.2
2018-Jun-14 23:31N 50°07' W 125°12'611.1
2018-Jun-14 23:00N 50°06' W 125°03'2 3.8
2018-Jun-14 22:30N 50°06' W 125°06'4 8.2
2018-Jun-14 22:01N 50°06' W 125°13'1 1.1
2018-Jun-14 21:30N 50°07' W 125°12'611.0
2018-Jun-14 21:00N 50°06' W 125°04'2 4.1
2018-Jun-14 20:31N 50°06' W 125°07'4 7.1
2018-Jun-14 19:58N 50°06' W 125°13'3 7.2
2018-Jun-14 19:31N 50°07' W 125°08'3 5.4
2018-Jun-14 19:00N 50°07' W 125°03'510.3
2018-Jun-14 18:30N 50°07' W 125°11'1 2.2
2018-Jun-14 18:01N 50°06' W 125°13'0 0.6
2018-Jun-14 17:30N 50°07' W 125°12'611.2
2018-Jun-14 17:01N 50°06' W 125°04'1 2.5
2018-Jun-14 16:30N 50°06' W 125°06'4 8.9
2018-Jun-14 16:00N 50°06' W 125°13'1 1.6
2018-Jun-14 15:30N 50°07' W 125°12'510.7
2018-Jun-14 15:00N 50°07' W 125°03'0 0.1
2018-Jun-14 14:31N 50°07' W 125°03'0 0.0
2018-Jun-14 14:00N 50°07' W 125°03'0 0.0
2018-Jun-14 13:31N 50°07' W 125°03'0 0.0
2018-Jun-14 13:00N 50°07' W 125°03'0 0.0
2018-Jun-14 12:31N 50°07' W 125°03'0 0.0
2018-Jun-14 12:01N 50°07' W 125°03'0 0.0
2018-Jun-14 11:31N 50°07' W 125°03'0 0.0
2018-Jun-14 11:01N 50°07' W 125°03'0 0.0
2018-Jun-14 10:30N 50°07' W 125°03'0 0.0
2018-Jun-14 10:01N 50°07' W 125°03'0 0.0
2018-Jun-14 09:30N 50°07' W 125°03'0 0.0
2018-Jun-14 09:01N 50°07' W 125°03'0 0.0
2018-Jun-14 08:31N 50°07' W 125°03'0 0.0
2018-Jun-14 08:00N 50°07' W 125°03'0 0.0
2018-Jun-14 07:31N 50°07' W 125°03'0 0.0
2018-Jun-14 06:59N 50°07' W 125°03'0 0.0
2018-Jun-14 06:30N 50°07' W 125°03'0 0.0
2018-Jun-14 06:01N 50°07' W 125°03'0 0.0
2018-Jun-14 05:30N 50°07' W 125°03'0 0.0
2018-Jun-14 05:01N 50°07' W 125°03'0 0.0
2018-Jun-14 04:30N 50°07' W 125°03'0 0.0
2018-Jun-14 04:00N 50°07' W 125°03'0 0.0
2018-Jun-14 03:30N 50°07' W 125°03'0 0.0
2018-Jun-14 03:00N 50°07' W 125°03'0 0.0
2018-Jun-14 02:30N 50°07' W 125°03'510.4
2018-Jun-14 02:00N 50°07' W 125°11'0 0.7
2018-Jun-14 01:31N 50°07' W 125°12'510.9
2018-Jun-14 01:01N 50°06' W 125°03'2 4.4
2018-Jun-14 00:30N 50°07' W 125°07'4 7.6
2018-Jun-14 00:01N 50°06' W 125°13'1 1.5
2018-Jun-13 23:31N 50°07' W 125°12'510.9
2018-Jun-13 23:01N 50°07' W 125°03'3 5.9
2018-Jun-13 22:31N 50°06' W 125°08'3 6.1
2018-Jun-13 22:01N 50°06' W 125°13'1 2.2
2018-Jun-13 21:31N 50°07' W 125°11'5 9.8
2018-Jun-13 21:00N 50°07' W 125°03'2 3.8
2018-Jun-13 20:30N 50°06' W 125°06'4 8.4
2018-Jun-13 20:00N 50°06' W 125°13'1 2.5
2018-Jun-13 19:31N 50°07' W 125°11'5 9.7
2018-Jun-13 19:01N 50°07' W 125°03'2 4.7
2018-Jun-13 18:30N 50°06' W 125°07'4 7.4
2018-Jun-13 18:01N 50°06' W 125°13'2 3.0
2018-Jun-13 17:30N 50°06' W 125°10'5 9.0
2018-Jun-13 17:00N 50°07' W 125°03'3 6.0
2018-Jun-13 16:30N 50°06' W 125°08'3 6.2
2018-Jun-13 16:01N 50°06' W 125°13'0 0.1
2018-Jun-13 15:30N 50°06' W 125°13'5 9.8
2018-Jun-13 15:00N 50°06' W 125°05'1 2.4
2018-Jun-13 14:30N 50°07' W 125°03'0 0.0
2018-Jun-13 14:00N 50°07' W 125°03'0 0.0
2018-Jun-13 13:30N 50°07' W 125°03'0 0.0
2018-Jun-13 13:01N 50°07' W 125°03'0 0.0
2018-Jun-13 12:30N 50°07' W 125°03'0 0.0
2018-Jun-13 12:00N 50°07' W 125°03'0 0.0
2018-Jun-13 11:31N 50°07' W 125°03'0 0.0
2018-Jun-13 11:00N 50°07' W 125°03'0 0.0
2018-Jun-13 10:31N 50°07' W 125°03'0 0.0
2018-Jun-13 10:01N 50°07' W 125°03'0 0.0
2018-Jun-13 09:31N 50°07' W 125°03'0 0.0
2018-Jun-13 09:00N 50°07' W 125°03'0 0.0
2018-Jun-13 08:31N 50°07' W 125°03'0 0.0
2018-Jun-13 07:59N 50°07' W 125°03'0 0.0
2018-Jun-13 07:30N 50°07' W 125°03'0 0.0
2018-Jun-13 07:00N 50°07' W 125°03'0 0.0
2018-Jun-13 06:31N 50°07' W 125°03'0 0.0
2018-Jun-13 06:00N 50°07' W 125°03'0 0.0
2018-Jun-13 05:30N 50°07' W 125°03'0 0.0
2018-Jun-13 05:01N 50°07' W 125°03'0 0.0
2018-Jun-13 04:31N 50°07' W 125°03'0 0.0
2018-Jun-13 04:01N 50°07' W 125°03'0 0.0
2018-Jun-13 03:29N 50°07' W 125°03'0 0.0
2018-Jun-13 03:01N 50°07' W 125°03'0 0.0
2018-Jun-13 02:31N 50°07' W 125°03'5 9.5
2018-Jun-13 02:01N 50°07' W 125°11'1 1.7
2018-Jun-13 01:31N 50°07' W 125°12'611.0
2018-Jun-13 01:01N 50°06' W 125°03'2 4.7
2018-Jun-13 00:31N 50°06' W 125°07'4 7.2
2018-Jun-13 00:00N 50°06' W 125°13'1 1.2
2018-Jun-12 23:31N 50°07' W 125°12'611.2
2018-Jun-12 23:01N 50°06' W 125°03'2 4.5
2018-Jun-12 22:31N 50°06' W 125°07'4 7.6
2018-Jun-12 22:01N 50°06' W 125°13'0 0.3
2018-Jun-12 21:30N 50°06' W 125°13'510.5
2018-Jun-12 21:01N 50°06' W 125°04'1 2.0
2018-Jun-12 20:31N 50°06' W 125°06'4 8.5
2018-Jun-12 20:01N 50°06' W 125°13'0 0.0
2018-Jun-12 19:30N 50°06' W 125°13'5 9.6
2018-Jun-12 19:00N 50°06' W 125°05'1 1.7
2018-Jun-12 18:30N 50°06' W 125°04'510.6
2018-Jun-12 18:01N 50°07' W 125°12'0 0.5
2018-Jun-12 17:31N 50°07' W 125°12'611.2
2018-Jun-12 17:01N 50°06' W 125°04'2 3.9
2018-Jun-12 16:31N 50°06' W 125°07'4 7.5
2018-Jun-12 16:01N 50°06' W 125°13'0 0.0
2018-Jun-12 15:30N 50°06' W 125°13'5 9.8
2018-Jun-12 15:00N 50°06' W 125°05'1 2.3
2018-Jun-12 14:31N 50°07' W 125°03'0 0.0
2018-Jun-12 14:01N 50°07' W 125°03'0 0.0
2018-Jun-12 13:31N 50°07' W 125°03'0 0.0
2018-Jun-12 13:01N 50°07' W 125°03'0 0.0
2018-Jun-12 12:31N 50°07' W 125°03'0 0.0
2018-Jun-12 12:01N 50°07' W 125°03'0 0.0
2018-Jun-12 11:31N 50°07' W 125°03'0 0.0
2018-Jun-12 11:00N 50°07' W 125°03'0 0.0
2018-Jun-12 10:30N 50°07' W 125°03'0 0.0
2018-Jun-12 09:59N 50°07' W 125°03'0 0.0
2018-Jun-12 09:31N 50°07' W 125°03'0 0.0
2018-Jun-12 09:01N 50°07' W 125°03'0 0.0
2018-Jun-12 08:29N 50°07' W 125°03'0 0.0
2018-Jun-12 08:01N 50°07' W 125°03'0 0.0
2018-Jun-12 07:31N 50°07' W 125°03'0 0.0
2018-Jun-12 07:01N 50°07' W 125°03'0 0.0
2018-Jun-12 06:29N 50°07' W 125°03'0 0.0
2018-Jun-12 06:01N 50°07' W 125°03'0 0.0
2018-Jun-12 05:30N 50°07' W 125°03'0 0.0
2018-Jun-12 05:01N 50°07' W 125°03'0 0.0
2018-Jun-12 04:31N 50°07' W 125°03'0 0.0
2018-Jun-12 04:01N 50°07' W 125°03'0 0.0
2018-Jun-12 03:30N 50°07' W 125°03'0 0.0
2018-Jun-12 03:00N 50°07' W 125°03'0 0.0
2018-Jun-12 02:31N 50°07' W 125°03'5 9.5
2018-Jun-12 02:01N 50°07' W 125°11'1 2.1
2018-Jun-12 01:30N 50°07' W 125°12'611.0
2018-Jun-12 01:01N 50°06' W 125°04'2 4.8
2018-Jun-12 00:31N 50°06' W 125°07'3 6.7
2018-Jun-12 00:00N 50°06' W 125°13'2 3.1
2018-Jun-11 23:31N 50°07' W 125°10'5 9.2
2018-Jun-11 23:01N 50°07' W 125°03'3 5.3
2018-Jun-11 22:31N 50°07' W 125°07'3 6.8
2018-Jun-11 22:01N 50°06' W 125°13'0 0.4
2018-Jun-11 21:31N 50°06' W 125°13'611.0
2018-Jun-11 21:01N 50°06' W 125°04'2 3.6
2018-Jun-11 20:31N 50°06' W 125°07'4 7.5
2018-Jun-11 20:00N 50°06' W 125°13'0 0.2
2018-Jun-11 19:30N 50°06' W 125°13'510.7
2018-Jun-11 19:01N 50°06' W 125°04'2 3.2
2018-Jun-11 18:31N 50°06' W 125°07'4 7.4
2018-Jun-11 18:00N 50°06' W 125°13'0 0.5
2018-Jun-11 17:31N 50°06' W 125°13'611.0
2018-Jun-11 17:01N 50°06' W 125°04'1 2.9
2018-Jun-11 16:31N 50°06' W 125°06'4 8.1
2018-Jun-11 16:00N 50°06' W 125°13'0 0.2
2018-Jun-11 15:31N 50°06' W 125°13'510.8
2018-Jun-11 15:01N 50°06' W 125°04'1 1.3
2018-Jun-11 14:31N 50°07' W 125°03'0 0.0
2018-Jun-11 14:00N 50°07' W 125°03'0 0.0
2018-Jun-11 13:31N 50°07' W 125°03'0 0.0
2018-Jun-11 13:01N 50°07' W 125°03'0 0.0
2018-Jun-11 12:31N 50°07' W 125°03'0 0.0
2018-Jun-11 12:01N 50°07' W 125°03'0 0.0
2018-Jun-11 11:31N 50°07' W 125°03'0 0.0
2018-Jun-11 11:01N 50°07' W 125°03'0 0.0
2018-Jun-11 10:29N 50°07' W 125°03'0 0.0
2018-Jun-11 10:00N 50°07' W 125°03'0 0.0
2018-Jun-11 09:30N 50°07' W 125°03'0 0.0
2018-Jun-11 09:01N 50°07' W 125°03'0 0.0
2018-Jun-11 08:31N 50°07' W 125°03'0 0.0
2018-Jun-11 08:01N 50°07' W 125°03'0 0.0
2018-Jun-11 07:30N 50°07' W 125°03'0 0.0
2018-Jun-11 07:01N 50°07' W 125°03'0 0.0
2018-Jun-11 06:31N 50°07' W 125°03'0 0.0
2018-Jun-11 05:59N 50°07' W 125°03'0 0.0
2018-Jun-11 05:30N 50°07' W 125°03'0 0.0
2018-Jun-11 05:01N 50°07' W 125°03'0 0.0
2018-Jun-11 04:31N 50°07' W 125°03'0 0.0
2018-Jun-11 04:01N 50°07' W 125°03'0 0.0
2018-Jun-11 03:31N 50°07' W 125°03'0 0.0
2018-Jun-11 03:00N 50°07' W 125°03'0 0.0
2018-Jun-11 02:31N 50°07' W 125°03'4 8.1
2018-Jun-11 02:01N 50°07' W 125°10'2 3.5
2018-Jun-11 01:31N 50°07' W 125°12'510.8
2018-Jun-11 01:00N 50°06' W 125°04'2 3.0
2018-Jun-11 00:31N 50°06' W 125°06'4 8.3
2018-Jun-11 00:01N 50°06' W 125°13'0 0.1
2018-Jun-10 23:31N 50°06' W 125°13'510.1
2018-Jun-10 23:00N 50°06' W 125°05'1 2.3
2018-Jun-10 22:30N 50°06' W 125°06'4 7.8
2018-Jun-10 22:00N 50°06' W 125°13'1 1.6
2018-Jun-10 21:30N 50°07' W 125°12'510.7
2018-Jun-10 21:00N 50°06' W 125°03'3 5.1
2018-Jun-10 20:30N 50°06' W 125°07'3 6.6
2018-Jun-10 19:59N 50°06' W 125°13'0 0.0
2018-Jun-10 19:31N 50°06' W 125°13'3 5.6
2018-Jun-10 19:00N 50°07' W 125°08'3 6.5
2018-Jun-10 18:30N 50°07' W 125°03'510.2
2018-Jun-10 18:01N 50°07' W 125°11'1 2.1
2018-Jun-10 17:31N 50°06' W 125°13'3 5.0
2018-Jun-10 17:00N 50°07' W 125°09'4 7.1
2018-Jun-10 16:31N 50°07' W 125°03'510.3
2018-Jun-10 16:00N 50°07' W 125°11'1 2.0
2018-Jun-10 15:30N 50°06' W 125°13'510.0
2018-Jun-10 15:01N 50°06' W 125°05'1 1.1
2018-Jun-10 14:00N 50°07' W 125°03'0 0.0
2018-Jun-10 13:31N 50°07' W 125°03'0 0.0
2018-Jun-10 13:00N 50°07' W 125°03'0 0.0
2018-Jun-10 12:31N 50°07' W 125°03'0 0.0
2018-Jun-10 12:01N 50°07' W 125°03'0 0.0
2018-Jun-10 11:30N 50°07' W 125°03'0 0.0
2018-Jun-10 11:00N 50°07' W 125°03'0 0.0
2018-Jun-10 10:31N 50°07' W 125°03'0 0.0
2018-Jun-10 09:59N 50°07' W 125°03'0 0.0
2018-Jun-10 09:30N 50°07' W 125°03'0 0.0
2018-Jun-10 09:00N 50°07' W 125°03'0 0.0
2018-Jun-10 08:30N 50°07' W 125°03'0 0.0
2018-Jun-10 08:00N 50°07' W 125°03'0 0.0
2018-Jun-10 07:31N 50°07' W 125°03'0 0.0
2018-Jun-10 07:01N 50°07' W 125°03'0 0.0
2018-Jun-10 06:31N 50°07' W 125°03'0 0.0
2018-Jun-10 06:01N 50°07' W 125°03'0 0.0
2018-Jun-10 05:29N 50°07' W 125°03'0 0.0
2018-Jun-10 05:01N 50°07' W 125°03'0 0.0
2018-Jun-10 04:30N 50°07' W 125°03'0 0.0
2018-Jun-10 04:00N 50°07' W 125°03'0 0.0
2018-Jun-10 03:31N 50°07' W 125°03'0 0.0
2018-Jun-10 03:00N 50°07' W 125°03'0 0.0
2018-Jun-10 02:31N 50°07' W 125°03'4 8.0
2018-Jun-10 02:00N 50°07' W 125°09'2 4.1
2018-Jun-10 01:31N 50°06' W 125°13'5 9.5
2018-Jun-10 01:00N 50°06' W 125°05'0 0.7
2018-Jun-10 00:30N 50°06' W 125°06'4 9.0
2018-Jun-10 00:01N 50°06' W 125°13'0 0.1
2018-Jun-09 23:31N 50°06' W 125°13'5 9.6
2018-Jun-09 23:00N 50°06' W 125°05'1 1.2
2018-Jun-09 22:30N 50°06' W 125°06'4 8.7
2018-Jun-09 22:01N 50°06' W 125°13'0 0.1
2018-Jun-09 21:31N 50°06' W 125°13'5 9.5
2018-Jun-09 21:00N 50°06' W 125°05'0 0.8
2018-Jun-09 20:30N 50°06' W 125°06'4 8.7
2018-Jun-09 20:00N 50°06' W 125°13'0 0.0
2018-Jun-09 19:31N 50°06' W 125°13'3 5.4
2018-Jun-09 19:00N 50°07' W 125°08'3 6.7
2018-Jun-09 18:31N 50°07' W 125°03'510.4
2018-Jun-09 18:01N 50°07' W 125°11'1 1.9
2018-Jun-09 17:31N 50°06' W 125°13'2 4.9
2018-Jun-09 17:00N 50°07' W 125°09'4 7.2
2018-Jun-09 16:30N 50°07' W 125°03'5 9.6
2018-Jun-09 16:01N 50°07' W 125°11'3 3.4
2018-Jun-09 15:01N 50°06' W 125°05'1 2.6
2018-Jun-09 14:27N 50°07' W 125°03'0 0.0
2018-Jun-09 14:00N 50°07' W 125°03'0 0.0
2018-Jun-09 13:29N 50°07' W 125°03'0 0.0
2018-Jun-09 13:01N 50°07' W 125°03'  

Dump ship's entire track history